Time;durP1;ratioP1;P1;durP2;ratioP2;P2;SDS_P1;SDS_P2;PMS_P1;PMS_P2;Temp;Humidity;BMP_temperature;BMP_pressure;BME280_temperature;BME280_humidity;BME280_pressure;Samples;Min_cycle;Max_cycle;Signal;HPM_P1;HPM_P2
2021/09/06 00:00:35;;;;;;;7.30;4.80;;;11.40;99.90;;;;;;4124631;28;20570;-64
2021/09/06 00:02:37;;;;;;;8.43;4.40;;;11.40;99.90;;;;;;4125846;28;20042;-65
2021/09/06 00:04:39;;;;;;;10.57;5.57;;;11.40;99.90;;;;;;4124565;28;20050;-65
2021/09/06 00:06:41;;;;;;;10.23;4.77;;;11.40;99.90;;;;;;4125935;28;20817;-65
2021/09/06 00:08:42;;;;;;;7.50;4.33;;;11.40;99.90;;;;;;4124816;28;20046;-65
2021/09/06 00:10:46;;;;;;;7.27;5.03;;;11.30;99.90;;;;;;4126092;28;20498;-65
2021/09/06 00:12:47;;;;;;;8.13;5.10;;;11.30;99.90;;;;;;4124719;28;20471;-65
2021/09/06 00:14:48;;;;;;;7.67;4.70;;;11.30;99.90;;;;;;4125891;28;20387;-64
2021/09/06 00:16:49;;;;;;;9.13;4.87;;;11.30;99.90;;;;;;4124841;28;20022;-65
2021/09/06 00:18:51;;;;;;;6.97;4.87;;;11.40;99.90;;;;;;4125386;28;20116;-64
2021/09/06 00:20:53;;;;;;;8.30;4.90;;;11.30;99.90;;;;;;4125276;28;20030;-65
2021/09/06 00:22:55;;;;;;;8.93;5.30;;;11.30;99.90;;;;;;4125143;28;20084;-65
2021/09/06 00:24:56;;;;;;;8.50;4.93;;;11.30;99.90;;;;;;4125229;28;20038;-65
2021/09/06 00:26:57;;;;;;;8.20;4.80;;;11.30;99.90;;;;;;4124010;28;20031;-65
2021/09/06 00:28:58;;;;;;;9.27;4.90;;;11.20;99.90;;;;;;4125714;28;20034;-64
2021/09/06 00:31:00;;;;;;;7.50;5.17;;;11.20;99.90;;;;;;4123704;28;20104;-64
2021/09/06 00:33:01;;;;;;;10.10;5.67;;;11.20;99.90;;;;;;4125871;28;20030;-64
2021/09/06 00:35:03;;;;;;;9.40;5.13;;;11.20;99.90;;;;;;4124348;28;20039;-64
2021/09/06 00:37:04;;;;;;;8.60;5.40;;;11.10;99.90;;;;;;4125645;28;20069;-63
2021/09/06 00:39:05;;;;;;;10.17;5.07;;;11.10;99.90;;;;;;4124080;28;20078;-64
2021/09/06 00:41:06;;;;;;;12.83;5.10;;;11.10;99.90;;;;;;4125614;28;20109;-64
2021/09/06 00:43:07;;;;;;;8.13;4.70;;;11.00;99.90;;;;;;4124338;28;20150;-65
2021/09/06 00:45:09;;;;;;;8.27;5.10;;;11.00;99.90;;;;;;4125467;28;20499;-64
2021/09/06 00:47:11;;;;;;;11.43;4.87;;;10.90;99.90;;;;;;4124151;28;20030;-63
2021/09/06 00:49:12;;;;;;;10.53;4.80;;;10.90;99.90;;;;;;4124815;28;20038;-64
2021/09/06 00:51:13;;;;;;;10.70;5.30;;;10.90;99.90;;;;;;4124779;28;20502;-64
2021/09/06 00:53:15;;;;;;;14.33;5.90;;;10.80;99.90;;;;;;4124862;28;20086;-63
2021/09/06 00:55:18;;;;;;;9.43;5.03;;;10.80;99.90;;;;;;4124712;28;20632;-63
2021/09/06 00:57:19;;;;;;;9.30;5.33;;;10.80;99.90;;;;;;4123769;28;20037;-64
2021/09/06 00:59:21;;;;;;;7.53;4.70;;;10.70;99.90;;;;;;4125581;28;20054;-64
2021/09/06 01:01:23;;;;;;;8.83;4.63;;;10.70;99.90;;;;;;4122555;28;20058;-64
2021/09/06 01:03:24;;;;;;;8.90;5.13;;;10.70;99.90;;;;;;4125009;28;20026;-64
2021/09/06 01:05:26;;;;;;;8.73;4.83;;;10.70;99.90;;;;;;4123442;28;20766;-65
2021/09/06 01:07:27;;;;;;;8.10;5.03;;;10.60;99.90;;;;;;4125371;28;20042;-64
2021/09/06 01:09:28;;;;;;;6.83;4.97;;;10.70;99.90;;;;;;4123712;28;20568;-64
2021/09/06 01:11:30;;;;;;;7.83;5.50;;;10.70;99.90;;;;;;4125367;28;20063;-64
2021/09/06 01:13:31;;;;;;;8.70;5.73;;;10.70;99.90;;;;;;4124061;28;20093;-64
2021/09/06 01:15:33;;;;;;;9.63;6.00;;;10.70;99.90;;;;;;4125284;28;20113;-65
2021/09/06 01:17:34;;;;;;;8.70;5.70;;;10.70;99.90;;;;;;4124311;28;20081;-64
2021/09/06 01:19:35;;;;;;;9.33;5.97;;;10.70;99.90;;;;;;4124722;28;20022;-64
2021/09/06 01:21:36;;;;;;;6.87;4.73;;;10.70;99.90;;;;;;4124737;28;20039;-64
2021/09/06 01:23:39;;;;;;;9.97;5.43;;;10.80;99.90;;;;;;4124781;28;20039;-64
2021/09/06 01:25:40;;;;;;;10.17;5.87;;;10.80;99.90;;;;;;4125156;28;20081;-64
2021/09/06 01:27:42;;;;;;;9.63;5.23;;;10.80;99.90;;;;;;4123791;28;20487;-64
2021/09/06 01:29:44;;;;;;;9.57;5.40;;;10.80;99.90;;;;;;4125128;28;20022;-64
2021/09/06 01:31:45;;;;;;;8.17;5.83;;;10.80;99.90;;;;;;4124103;28;20042;-64
2021/09/06 01:33:46;;;;;;;10.43;5.63;;;10.80;99.90;;;;;;4125047;28;20039;-64
2021/09/06 01:35:47;;;;;;;7.70;5.13;;;10.80;99.90;;;;;;4123765;28;20085;-64
2021/09/06 01:37:48;;;;;;;8.87;6.20;;;10.80;99.90;;;;;;4125201;28;20092;-64
2021/09/06 01:39:49;;;;;;;10.33;7.03;;;10.80;99.90;;;;;;4123485;28;20089;-63
2021/09/06 01:41:51;;;;;;;8.40;5.73;;;10.80;99.90;;;;;;4125215;28;20023;-63
2021/09/06 01:43:52;;;;;;;11.53;7.27;;;10.80;99.90;;;;;;4126044;28;20038;-64
2021/09/06 01:45:53;;;;;;;10.43;6.17;;;10.80;99.90;;;;;;4128540;28;20077;-65
2021/09/06 01:47:54;;;;;;;12.00;7.53;;;10.80;99.90;;;;;;4127024;28;20038;-64
2021/09/06 01:49:56;;;;;;;9.73;5.93;;;10.80;99.90;;;;;;4127872;28;20096;-64
2021/09/06 01:51:58;;;;;;;11.60;6.83;;;10.80;99.90;;;;;;4125490;28;20061;-64
2021/09/06 01:53:59;;;;;;;11.00;8.37;;;10.80;99.90;;;;;;4127381;28;20042;-65
2021/09/06 01:56:00;;;;;;;14.57;8.63;;;10.70;99.90;;;;;;4127478;28;20080;-64
2021/09/06 01:58:01;;;;;;;13.87;9.40;;;10.70;99.90;;;;;;4127018;28;20034;-64
2021/09/06 02:00:04;;;;;;;14.77;8.23;;;10.60;99.90;;;;;;4127314;28;20073;-62
2021/09/06 02:02:05;;;;;;;11.37;8.00;;;10.50;99.90;;;;;;4111170;28;20039;-64
2021/09/06 02:04:06;;;;;;;11.90;8.57;;;10.60;99.90;;;;;;4111760;28;20030;-65
2021/09/06 02:06:08;;;;;;;13.67;7.43;;;10.50;99.90;;;;;;4110498;28;20098;-64
2021/09/06 02:08:09;;;;;;;15.03;9.20;;;10.50;99.90;;;;;;4111593;28;20038;-64
2021/09/06 02:10:10;;;;;;;12.77;7.50;;;10.50;99.90;;;;;;4110731;28;20031;-64
2021/09/06 02:12:11;;;;;;;11.80;7.70;;;10.50;99.90;;;;;;4111894;28;20034;-64
2021/09/06 02:14:12;;;;;;;12.90;6.03;;;10.50;99.90;;;;;;4110494;28;20055;-64
2021/09/06 02:16:14;;;;;;;11.33;6.73;;;10.40;99.90;;;;;;4111605;28;20475;-64
2021/09/06 02:18:15;;;;;;;11.80;6.33;;;10.40;99.90;;;;;;4110602;28;20038;-65
2021/09/06 02:20:16;;;;;;;11.00;6.83;;;10.40;99.90;;;;;;4111338;28;20031;-64
2021/09/06 02:22:17;;;;;;;10.13;6.07;;;10.40;99.90;;;;;;4110476;28;20105;-63
2021/09/06 02:24:18;;;;;;;10.27;6.20;;;10.40;99.90;;;;;;4111446;28;20026;-63
2021/09/06 02:26:20;;;;;;;11.47;5.70;;;10.40;99.90;;;;;;4111206;28;20403;-64
2021/09/06 02:28:21;;;;;;;11.10;5.40;;;10.40;99.90;;;;;;4110872;28;20442;-64
2021/09/06 02:30:22;;;;;;;10.00;5.60;;;10.40;99.90;;;;;;4109756;28;20046;-64
2021/09/06 02:32:24;;;;;;;11.60;5.90;;;10.40;99.90;;;;;;4110093;28;20030;-64
2021/09/06 02:34:25;;;;;;;9.70;5.33;;;10.40;99.90;;;;;;4111598;28;20055;-64
2021/09/06 02:36:26;;;;;;;9.23;5.27;;;10.30;99.90;;;;;;4109919;28;20081;-64
2021/09/06 02:38:27;;;;;;;10.33;5.07;;;10.30;99.90;;;;;;4110957;28;20031;-64
2021/09/06 02:40:28;;;;;;;10.00;4.33;;;10.30;99.90;;;;;;4110247;28;20400;-64
2021/09/06 02:42:29;;;;;;;7.57;5.07;;;10.30;99.90;;;;;;4111359;28;20082;-64
2021/09/06 02:44:31;;;;;;;9.73;4.97;;;10.30;99.90;;;;;;4109824;28;20102;-64
2021/09/06 02:46:32;;;;;;;9.70;5.77;;;10.20;99.90;;;;;;4114547;28;20503;-64
2021/09/06 02:48:33;;;;;;;10.57;6.07;;;10.20;99.90;;;;;;4125912;28;20650;-64
2021/09/06 02:50:34;;;;;;;7.90;4.60;;;10.10;99.90;;;;;;4127063;28;20097;-64
2021/09/06 02:52:35;;;;;;;8.60;5.57;;;10.10;99.90;;;;;;4125947;28;20030;-65
2021/09/06 02:54:36;;;;;;;11.13;5.23;;;10.00;99.90;;;;;;4126506;28;20905;-64
2021/09/06 02:56:37;;;;;;;8.20;4.70;;;10.10;99.90;;;;;;4126158;28;20026;-64
2021/09/06 02:58:39;;;;;;;10.40;5.40;;;10.00;99.90;;;;;;4125994;28;20104;-65
2021/09/06 03:00:40;;;;;;;9.13;5.63;;;10.00;99.90;;;;;;4126211;28;20054;-65
2021/09/06 03:02:41;;;;;;;10.80;5.20;;;10.00;99.90;;;;;;4125862;28;20080;-65
2021/09/06 03:04:42;;;;;;;7.57;5.07;;;10.00;99.90;;;;;;4127071;28;20034;-64
2021/09/06 03:06:44;;;;;;;9.33;5.57;;;10.00;99.90;;;;;;4125176;28;20038;-64
2021/09/06 03:08:45;;;;;;;7.97;5.27;;;10.00;99.90;;;;;;4127049;28;20117;-65
2021/09/06 03:10:46;;;;;;;10.03;5.03;;;10.00;99.90;;;;;;4125777;28;20442;-64
2021/09/06 03:12:47;;;;;;;43.67;17.77;;;10.00;99.90;;;;;;4127095;28;20031;-64
2021/09/06 03:14:48;;;;;;;26.77;10.83;;;10.00;99.90;;;;;;4125239;28;20506;-70
2021/09/06 03:16:50;;;;;;;25.13;9.83;;;10.00;99.90;;;;;;4127149;28;21023;-65
2021/09/06 03:18:52;;;;;;;8.67;5.20;;;10.00;99.90;;;;;;4125488;28;20026;-65
2021/09/06 03:20:53;;;;;;;17.53;7.40;;;10.00;99.90;;;;;;4126445;28;20093;-64
2021/09/06 03:22:54;;;;;;;17.90;6.67;;;10.00;99.90;;;;;;4125667;28;20345;-65
2021/09/06 03:24:55;;;;;;;14.00;6.27;;;9.90;99.90;;;;;;4126339;28;20479;-64
2021/09/06 03:26:56;;;;;;;15.17;6.07;;;9.90;99.90;;;;;;4126129;28;20034;-64
2021/09/06 03:28:57;;;;;;;7.93;4.83;;;10.00;99.90;;;;;;4125728;28;20162;-64
2021/09/06 03:30:58;;;;;;;11.70;5.07;;;9.90;99.90;;;;;;4126167;28;20038;-64
2021/09/06 03:32:59;;;;;;;9.73;5.23;;;10.00;99.90;;;;;;4125410;28;20097;-65
2021/09/06 03:35:00;;;;;;;8.87;5.30;;;9.90;99.90;;;;;;4126577;28;20430;-64
2021/09/06 03:37:02;;;;;;;10.23;5.33;;;10.00;99.90;;;;;;4125056;28;20084;-65
2021/09/06 03:39:03;;;;;;;11.90;6.23;;;10.00;99.90;;;;;;4126191;28;20042;-66
2021/09/06 03:41:04;;;;;;;12.60;5.30;;;10.00;99.90;;;;;;4124978;28;20053;-65
2021/09/06 03:43:05;;;;;;;7.77;5.20;;;10.00;99.90;;;;;;4126579;28;20533;-65
2021/09/06 03:45:07;;;;;;;9.57;6.07;;;10.00;99.90;;;;;;4125140;28;20077;-65
2021/09/06 03:47:08;;;;;;;8.90;6.10;;;10.00;99.90;;;;;;4126453;28;20038;-65
2021/09/06 03:49:10;;;;;;;8.37;4.90;;;10.00;99.90;;;;;;4123353;28;20157;-65
2021/09/06 03:51:11;;;;;;;8.60;5.43;;;10.10;99.90;;;;;;4140680;28;20460;-65
2021/09/06 03:53:12;;;;;;;12.60;5.50;;;10.10;99.90;;;;;;4124834;28;20034;-65
2021/09/06 03:55:13;;;;;;;11.20;5.23;;;10.10;99.90;;;;;;4140824;28;20169;-64
2021/09/06 03:57:15;;;;;;;8.57;5.50;;;10.10;99.90;;;;;;4125315;28;20081;-65
2021/09/06 03:59:18;;;;;;;15.17;5.77;;;10.10;99.90;;;;;;4125238;28;20429;-64
2021/09/06 04:01:20;;;;;;;10.97;5.30;;;10.10;99.90;;;;;;4121913;28;20058;-65
2021/09/06 04:03:21;;;;;;;8.93;5.40;;;10.20;99.90;;;;;;4123686;28;20038;-65
2021/09/06 04:05:22;;;;;;;9.70;6.10;;;10.20;99.90;;;;;;4125178;28;20030;-65
2021/09/06 04:07:23;;;;;;;10.03;5.37;;;10.20;99.90;;;;;;4124303;28;20034;-65
2021/09/06 04:09:25;;;;;;;12.10;5.83;;;10.30;99.90;;;;;;4125754;28;20116;-64
2021/09/06 04:11:26;;;;;;;9.00;5.00;;;10.40;99.90;;;;;;4124565;28;20042;-64
2021/09/06 04:13:27;;;;;;;9.57;4.93;;;10.60;99.90;;;;;;4125288;28;20076;-64
2021/09/06 04:15:28;;;;;;;10.70;5.13;;;10.70;99.90;;;;;;4123857;28;20041;-64
2021/09/06 04:17:30;;;;;;;11.03;5.43;;;10.90;99.90;;;;;;4125957;28;20430;-64
2021/09/06 04:19:31;;;;;;;12.17;5.43;;;11.10;99.90;;;;;;4122923;28;20105;-63
2021/09/06 04:21:32;;;;;;;14.33;5.57;;;11.20;99.90;;;;;;4125730;28;20042;-64
2021/09/06 04:23:33;;;;;;;11.40;5.83;;;11.50;99.90;;;;;;4124629;28;20080;-65
2021/09/06 04:25:35;;;;;;;12.20;5.50;;;11.70;99.90;;;;;;4125508;28;20026;-65
2021/09/06 04:27:36;;;;;;;8.23;5.37;;;11.80;99.90;;;;;;4124288;28;20030;-66
2021/09/06 04:29:37;;;;;;;10.10;4.77;;;12.00;99.90;;;;;;4125089;28;20067;-65
2021/09/06 04:31:38;;;;;;;6.77;4.67;;;12.00;99.90;;;;;;4123271;28;20026;-65
2021/09/06 04:33:39;;;;;;;14.17;5.57;;;12.10;99.90;;;;;;4124181;28;20038;-66
2021/09/06 04:35:40;;;;;;;8.57;5.43;;;12.20;99.90;;;;;;4125462;28;20058;-64
2021/09/06 04:37:42;;;;;;;8.53;4.93;;;12.40;99.90;;;;;;4124461;28;20364;-65
2021/09/06 04:39:43;;;;;;;12.00;5.27;;;12.60;99.90;;;;;;4125430;28;20034;-65
2021/09/06 04:41:44;;;;;;;11.07;4.63;;;12.70;99.90;;;;;;4123520;28;20042;-65
2021/09/06 04:43:47;;;;;;;8.63;5.20;;;12.80;99.90;;;;;;4125381;28;20438;-65
2021/09/06 04:45:49;;;;;;;9.03;4.73;;;12.80;99.90;;;;;;4124021;28;20034;-65
2021/09/06 04:47:50;;;;;;;11.03;5.27;;;12.90;99.90;;;;;;4125081;28;20042;-65
2021/09/06 04:49:51;;;;;;;9.37;4.60;;;13.20;99.90;;;;;;4122643;28;20047;-65
2021/09/06 04:51:52;;;;;;;8.33;5.20;;;13.30;99.90;;;;;;4125249;28;21390;-66
2021/09/06 04:53:53;;;;;;;10.23;5.13;;;13.40;99.90;;;;;;4124203;28;20034;-65
2021/09/06 04:55:54;;;;;;;10.97;4.97;;;13.30;99.90;;;;;;4124630;28;20042;-64
2021/09/06 04:57:56;;;;;;;11.63;5.17;;;13.40;99.90;;;;;;4124359;28;20030;-65
2021/09/06 04:59:57;;;;;;;8.60;5.30;;;13.40;99.90;;;;;;4123796;28;20061;-64
2021/09/06 05:01:58;;;;;;;9.97;4.87;;;13.60;99.90;;;;;;4123825;28;20099;-64
2021/09/06 05:03:59;;;;;;;6.40;4.63;;;13.80;99.90;;;;;;4107270;28;20108;-64
2021/09/06 05:06:00;;;;;;;10.97;4.90;;;13.80;99.90;;;;;;4116732;28;20563;-65
2021/09/06 05:08:01;;;;;;;9.40;4.87;;;13.90;99.90;;;;;;4117638;28;20108;-65
2021/09/06 05:10:03;;;;;;;13.10;5.07;;;14.00;99.90;;;;;;4110951;28;20042;-65
2021/09/06 05:12:05;;;;;;;8.73;4.50;;;14.10;99.90;;;;;;4114640;28;20487;-63
2021/09/06 05:14:06;;;;;;;10.43;4.23;;;14.20;99.90;;;;;;4118905;28;20415;-65
2021/09/06 05:16:08;;;;;;;8.63;5.00;;;14.20;99.90;;;;;;4110154;28;20097;-64
2021/09/06 05:18:10;;;;;;;13.43;4.53;;;14.30;99.90;;;;;;4114913;28;20495;-67
2021/09/06 05:20:12;;;;;;;11.60;5.17;;;14.40;99.90;;;;;;4118211;28;20050;-62
2021/09/06 05:22:13;;;;;;;11.93;4.53;;;14.40;99.90;;;;;;4123564;28;20030;-64
2021/09/06 05:24:14;;;;;;;9.00;4.10;;;14.40;99.90;;;;;;4122673;28;20368;-62
2021/09/06 05:26:15;;;;;;;9.33;5.03;;;14.70;99.90;;;;;;4109137;28;20027;-64
2021/09/06 05:28:16;;;;;;;10.47;4.10;;;14.90;99.90;;;;;;4120403;28;20034;-67
2021/09/06 05:30:17;;;;;;;7.40;4.30;;;15.00;99.90;;;;;;4123372;28;20798;-68
2021/09/06 05:32:18;;;;;;;10.13;5.15;;;14.90;99.90;;;;;;4123475;28;20030;-65
2021/09/06 05:34:19;;;;;;;10.40;4.70;;;14.80;99.90;;;;;;4121859;28;20070;-58
2021/09/06 05:36:20;;;;;;;10.00;4.60;;;14.70;99.90;;;;;;4124197;28;20038;-64
2021/09/06 05:38:21;;;;;;;12.02;3.97;;;14.90;99.90;;;;;;4123159;28;20034;-66
2021/09/06 05:40:23;;;;;;;8.88;4.43;;;15.10;99.90;;;;;;4124095;28;20038;-65
2021/09/06 05:42:24;;;;;;;8.25;4.63;;;15.10;99.90;;;;;;4123606;28;20035;-65
2021/09/06 05:44:25;;;;;;;7.30;4.10;;;15.30;99.90;;;;;;4124325;28;20077;-65
2021/09/06 05:46:26;;;;;;;9.30;4.38;;;15.40;99.90;;;;;;4122694;28;20089;-65
2021/09/06 05:48:27;;;;;;;7.60;3.88;;;15.30;99.90;;;;;;4124292;28;20816;-64
2021/09/06 05:50:28;;;;;;;10.63;4.32;;;15.30;99.90;;;;;;4123619;28;20050;-66
2021/09/06 05:52:29;;;;;;;10.68;4.30;;;15.20;99.90;;;;;;4124760;28;20088;-64
2021/09/06 05:54:31;;;;;;;10.25;4.63;;;15.20;99.90;;;;;;4124365;28;20123;-64
2021/09/06 05:56:32;;;;;;;8.13;5.07;;;15.20;99.90;;;;;;4123416;28;20065;-64
2021/09/06 05:58:33;;;;;;;8.20;4.27;;;15.40;99.90;;;;;;4123607;28;20479;-64
2021/09/06 06:00:35;;;;;;;7.03;4.90;;;15.60;99.90;;;;;;4123474;28;20050;-64
2021/09/06 06:02:36;;;;;;;5.70;4.00;;;15.60;99.90;;;;;;4124362;28;20104;-65
2021/09/06 06:04:37;;;;;;;7.20;3.90;;;15.50;99.90;;;;;;4123064;28;20101;-65
2021/09/06 06:06:38;;;;;;;6.53;4.17;;;15.40;99.90;;;;;;4124654;28;20089;-64
2021/09/06 06:08:39;;;;;;;8.50;4.00;;;15.50;99.90;;;;;;4123157;28;20049;-64
2021/09/06 06:10:41;;;;;;;8.00;4.00;;;15.40;99.90;;;;;;4124666;28;20034;-64
2021/09/06 06:12:42;;;;;;;8.33;4.40;;;15.40;99.90;;;;;;4123621;28;20113;-64
2021/09/06 06:14:43;;;;;;;8.40;4.37;;;15.30;99.90;;;;;;4124235;28;20042;-64
2021/09/06 06:16:45;;;;;;;8.93;3.83;;;15.50;99.90;;;;;;4123467;28;20038;-64
2021/09/06 06:18:46;;;;;;;7.07;4.15;;;15.30;99.90;;;;;;4124387;28;20119;-64
2021/09/06 06:20:47;;;;;;;9.03;3.90;;;15.40;99.90;;;;;;4123349;28;20038;-65
2021/09/06 06:22:48;;;;;;;7.83;4.03;;;15.50;99.90;;;;;;4124262;28;20506;-65
2021/09/06 06:24:49;;;;;;;9.73;4.80;;;15.40;99.90;;;;;;4123606;28;20026;-65
2021/09/06 06:26:50;;;;;;;9.27;4.23;;;15.60;99.90;;;;;;4123409;28;20026;-64
2021/09/06 06:28:51;;;;;;;7.17;4.40;;;15.50;99.90;;;;;;4124203;28;20487;-64
2021/09/06 06:30:52;;;;;;;10.10;3.97;;;15.60;99.90;;;;;;4126694;28;20042;-64
2021/09/06 06:32:53;;;;;;;6.65;3.95;;;15.60;99.90;;;;;;4127362;28;20050;-64
2021/09/06 06:34:55;;;;;;;6.38;3.20;;;15.90;99.90;;;;;;4125671;28;20081;-64
2021/09/06 06:36:56;;;;;;;9.60;3.50;;;16.10;99.90;;;;;;4127423;28;20050;-65
2021/09/06 06:38:57;;;;;;;8.68;3.65;;;16.20;99.90;;;;;;4125987;28;20049;-65
2021/09/06 06:40:58;;;;;;;6.18;3.53;;;16.40;99.90;;;;;;4127171;28;20042;-66
2021/09/06 06:43:00;;;;;;;4.70;2.55;;;16.60;99.90;;;;;;4125746;28;20035;-64
2021/09/06 06:45:01;;;;;;;7.18;3.15;;;16.70;99.90;;;;;;4126326;28;20026;-65
2021/09/06 06:47:02;;;;;;;4.70;2.78;;;16.90;99.90;;;;;;4125313;28;20128;-65
2021/09/06 06:49:03;;;;;;;7.15;2.58;;;16.90;99.90;;;;;;4126611;28;20038;-64
2021/09/06 06:51:04;;;;;;;5.25;2.70;;;16.90;99.90;;;;;;4125527;28;20038;-65
2021/09/06 06:53:06;;;;;;;5.13;2.88;;;16.80;99.90;;;;;;4126452;28;20081;-64
2021/09/06 06:55:07;;;;;;;5.70;2.78;;;16.70;99.90;;;;;;4126151;28;20069;-64
2021/09/06 06:57:08;;;;;;;4.93;2.90;;;16.80;99.90;;;;;;4141189;28;20092;-65
2021/09/06 06:59:10;;;;;;;6.78;2.97;;;16.80;99.90;;;;;;4125883;28;20502;-64
2021/09/06 07:01:11;;;;;;;7.75;3.20;;;16.80;99.90;;;;;;4125672;28;20445;-65
2021/09/06 07:03:12;;;;;;;4.78;3.17;;;17.00;99.90;;;;;;4126216;28;20467;-66
2021/09/06 07:05:13;;;;;;;5.55;2.72;;;16.90;99.50;;;;;;4125132;28;20823;-66
2021/09/06 07:07:14;;;;;;;5.78;3.20;;;16.90;99.90;;;;;;4126441;28;20132;-65
2021/09/06 07:09:16;;;;;;;7.50;3.00;;;17.00;99.60;;;;;;4125193;28;20088;-63
2021/09/06 07:11:17;;;;;;;6.60;3.03;;;16.90;99.50;;;;;;4126788;28;20042;-64
2021/09/06 07:13:18;;;;;;;5.03;2.58;;;17.00;99.50;;;;;;4125134;28;20030;-64
2021/09/06 07:15:19;;;;;;;3.92;2.42;;;17.10;99.40;;;;;;4125894;28;20467;-64
2021/09/06 07:17:20;;;;;;;4.65;2.50;;;17.20;99.30;;;;;;4124804;28;20050;-65
2021/09/06 07:19:21;;;;;;;5.93;2.83;;;17.30;99.10;;;;;;4126302;28;20085;-64
2021/09/06 07:21:22;;;;;;;7.50;3.22;;;17.40;99.20;;;;;;4125510;28;20046;-64
2021/09/06 07:23:24;;;;;;;4.43;2.58;;;17.60;99.00;;;;;;4126447;28;20081;-64
2021/09/06 07:25:25;;;;;;;3.13;2.28;;;17.70;98.70;;;;;;4125333;28;20744;-64
2021/09/06 07:27:26;;;;;;;3.88;2.45;;;17.70;98.50;;;;;;4125780;28;20030;-64
2021/09/06 07:29:27;;;;;;;4.88;3.03;;;17.60;98.50;;;;;;4125328;28;20130;-63
2021/09/06 07:31:28;;;;;;;8.27;2.58;;;17.60;98.40;;;;;;4125266;28;20527;-64
2021/09/06 07:33:29;;;;;;;4.68;3.20;;;17.60;98.40;;;;;;4126015;28;20529;-64
2021/09/06 07:35:31;;;;;;;4.38;3.28;;;17.70;98.40;;;;;;4123802;28;20046;-64
2021/09/06 07:37:32;;;;;;;6.38;3.03;;;17.60;98.30;;;;;;4125831;28;20034;-64
2021/09/06 07:39:34;;;;;;;5.95;2.65;;;17.80;98.40;;;;;;4124812;28;20105;-64
2021/09/06 07:41:35;;;;;;;9.00;3.00;;;18.20;98.10;;;;;;4124971;28;20065;-64
2021/09/06 07:43:36;;;;;;;7.30;3.30;;;18.20;98.00;;;;;;4124649;28;20030;-64
2021/09/06 07:45:38;;;;;;;4.88;2.88;;;18.20;97.90;;;;;;4126177;28;20022;-64
2021/09/06 07:47:39;;;;;;;4.60;3.33;;;18.20;97.90;;;;;;4124496;28;20567;-64
2021/09/06 07:49:41;;;;;;;4.07;2.40;;;18.20;98.10;;;;;;4126188;28;20077;-65
2021/09/06 07:51:43;;;;;;;8.60;3.35;;;18.50;98.20;;;;;;4124705;28;20073;-64
2021/09/06 07:53:45;;;;;;;6.35;3.10;;;18.90;97.80;;;;;;4125873;28;20065;-65
2021/09/06 07:55:46;;;;;;;5.75;2.90;;;18.80;97.30;;;;;;4125031;28;20092;-65
2021/09/06 07:57:47;;;;;;;5.50;2.88;;;18.50;97.40;;;;;;4125533;28;20030;-65
2021/09/06 07:59:48;;;;;;;5.32;2.85;;;18.20;97.60;;;;;;4124553;28;20038;-65
2021/09/06 08:01:49;;;;;;;5.22;3.17;;;18.00;97.80;;;;;;4124738;28;20360;-66
2021/09/06 08:03:50;;;;;;;6.80;2.97;;;18.30;98.00;;;;;;4124545;28;20026;-65
2021/09/06 08:05:51;;;;;;;4.43;2.90;;;18.40;97.70;;;;;;4124890;28;20537;-65
2021/09/06 08:07:53;;;;;;;7.95;2.88;;;18.50;97.40;;;;;;4125505;28;20030;-65
2021/09/06 08:09:54;;;;;;;6.05;2.80;;;18.50;97.60;;;;;;4124637;28;20182;-65
2021/09/06 08:11:56;;;;;;;9.20;3.03;;;18.60;97.40;;;;;;4125551;28;20030;-65
2021/09/06 08:13:58;;;;;;;6.25;3.33;;;18.70;97.20;;;;;;4124396;28;20050;-65
2021/09/06 08:15:59;;;;;;;5.40;3.10;;;18.70;97.30;;;;;;4125258;28;20487;-65
2021/09/06 08:18:00;;;;;;;4.55;2.83;;;18.90;97.30;;;;;;4123770;28;20038;-65
2021/09/06 08:20:05;;;;;;;3.17;2.47;;;19.10;97.10;;;;;;4125113;28;20112;-65
2021/09/06 08:22:07;;;;;;;4.75;2.60;;;19.50;96.70;;;;;;4124585;28;20113;-65
2021/09/06 08:24:08;;;;;;;6.13;2.65;;;20.10;96.50;;;;;;4125253;28;20081;-64
2021/09/06 08:26:09;;;;;;;7.68;3.45;;;20.40;95.80;;;;;;4124432;28;20443;-65
2021/09/06 08:28:11;;;;;;;6.68;3.05;;;20.20;95.50;;;;;;4139655;28;20054;-64
2021/09/06 08:30:12;;;;;;;6.68;3.53;;;19.80;95.70;;;;;;4123924;28;20069;-64
2021/09/06 08:32:14;;;;;;;5.90;3.20;;;19.70;96.10;;;;;;4124283;28;20042;-65
2021/09/06 08:34:15;;;;;;;6.55;3.60;;;19.70;96.00;;;;;;4124247;28;20030;-64
2021/09/06 08:36:16;;;;;;;8.38;3.22;;;19.70;96.00;;;;;;4124469;28;20054;-64
2021/09/06 08:38:18;;;;;;;7.30;3.15;;;19.50;96.10;;;;;;4124985;28;20038;-65
2021/09/06 08:40:19;;;;;;;4.95;3.10;;;19.40;96.00;;;;;;4123205;28;20775;-64
2021/09/06 08:42:20;;;;;;;4.07;3.20;;;19.30;96.00;;;;;;4124973;28;20439;-63
2021/09/06 08:44:25;;;;;;;5.25;2.85;;;19.00;96.30;;;;;;4123569;28;20038;-64
2021/09/06 08:46:27;;;;;;;10.48;3.88;;;19.00;96.40;;;;;;4124682;28;20026;-63
2021/09/06 08:48:29;;;;;;;7.88;3.38;;;18.90;96.60;;;;;;4123719;28;20030;-64
2021/09/06 08:50:30;;;;;;;5.85;3.40;;;19.00;96.80;;;;;;4124833;28;20427;-63
2021/09/06 08:52:31;;;;;;;5.53;3.08;;;19.20;96.60;;;;;;4123050;28;20101;-64
2021/09/06 08:54:33;;;;;;;5.18;3.08;;;19.20;96.40;;;;;;4125615;28;20108;-64
2021/09/06 08:56:34;;;;;;;5.65;3.40;;;19.20;96.50;;;;;;4123240;28;20049;-64
2021/09/06 08:58:35;;;;;;;10.00;3.42;;;19.20;96.60;;;;;;4124344;28;20030;-64
2021/09/06 09:00:36;;;;;;;6.50;3.35;;;19.30;96.70;;;;;;4123344;28;20088;-64
2021/09/06 09:02:40;;;;;;;10.18;3.47;;;19.50;96.60;;;;;;4124526;28;20042;-65
2021/09/06 09:04:41;;;;;;;10.50;4.25;;;19.60;96.40;;;;;;4123729;28;20046;-65
2021/09/06 09:06:42;;;;;;;12.63;3.70;;;19.60;96.30;;;;;;4123824;28;20104;-65
2021/09/06 09:08:46;;;;;;;7.32;3.53;;;19.60;96.40;;;;;;4123896;28;20112;-65
2021/09/06 09:10:47;;;;;;;7.72;3.70;;;19.60;96.30;;;;;;4123537;28;20042;-64
2021/09/06 09:12:48;;;;;;;8.55;3.38;;;19.40;96.60;;;;;;4123984;28;20081;-64
2021/09/06 09:14:54;;;;;;;6.80;3.42;;;19.40;96.60;;;;;;4123575;28;20812;-65
2021/09/06 09:16:56;;;;;;;9.25;3.83;;;19.40;96.60;;;;;;4124781;28;20062;-64
2021/09/06 09:19:05;;;;;;;6.65;3.65;;;19.40;96.60;;;;;;4123587;28;20468;-64
2021/09/06 09:21:11;;;;;;;6.15;4.05;;;19.50;96.50;;;;;;4124783;28;20451;-63
2021/09/06 09:23:12;;;;;;;5.80;3.53;;;19.40;96.70;;;;;;4123191;28;20101;-64
2021/09/06 09:25:14;;;;;;;8.38;3.80;;;19.20;96.80;;;;;;4124907;28;20034;-64
2021/09/06 09:27:17;;;;;;;6.32;4.18;;;19.20;97.00;;;;;;4123420;28;20108;-64
2021/09/06 09:29:19;;;;;;;6.07;3.80;;;19.20;97.00;;;;;;4124645;28;20097;-64
2021/09/06 09:31:21;;;;;;;7.63;4.30;;;19.20;97.00;;;;;;4123305;28;20493;-64
2021/09/06 09:33:22;;;;;;;7.82;4.78;;;19.20;97.00;;;;;;4124496;28;20042;-64
2021/09/06 09:35:30;;;;;;;8.60;4.32;;;19.30;97.00;;;;;;4123474;28;20049;-64
2021/09/06 09:37:32;;;;;;;10.52;3.95;;;19.50;96.90;;;;;;4124600;28;20039;-64
2021/09/06 09:39:34;;;;;;;14.35;4.57;;;19.50;96.90;;;;;;4122892;28;20022;-65
2021/09/06 09:41:36;;;;;;;7.55;3.83;;;19.50;96.90;;;;;;4124018;28;20043;-65
2021/09/06 09:43:37;;;;;;;7.93;4.68;;;19.40;97.10;;;;;;4123637;28;20046;-65
2021/09/06 09:45:39;;;;;;;9.75;4.15;;;19.50;97.10;;;;;;4123285;28;20042;-64
2021/09/06 09:47:53;;;;;;;8.18;4.85;;;19.50;97.30;;;;;;4123667;28;20101;-65
2021/09/06 09:49:57;;;;;;;8.68;4.05;;;19.50;97.00;;;;;;4122892;28;20612;-64
2021/09/06 09:51:58;;;;;;;8.35;4.38;;;19.40;97.20;;;;;;4122465;28;20089;-65
2021/09/06 09:54:01;;;;;;;8.85;4.28;;;19.40;97.30;;;;;;4123180;28;20430;-65
2021/09/06 09:56:03;;;;;;;6.95;3.85;;;19.40;97.40;;;;;;4124786;28;20046;-65
2021/09/06 09:58:04;;;;;;;8.32;4.35;;;19.40;97.50;;;;;;4123102;28;20038;-65
2021/09/06 10:00:06;;;;;;;9.00;3.83;;;19.50;97.30;;;;;;4123953;28;20380;-64
2021/09/06 10:02:24;;;;;;;6.88;3.75;;;19.50;97.30;;;;;;4123362;28;20055;-65
2021/09/06 10:04:30;;;;;;;7.03;3.95;;;19.40;97.40;;;;;;4125369;28;20797;-64
2021/09/06 10:06:32;;;;;;;10.15;4.65;;;19.40;97.80;;;;;;4125867;28;20467;-65
2021/09/06 10:08:35;;;;;;;7.22;4.10;;;19.30;97.50;;;;;;4127117;28;20624;-64
2021/09/06 10:10:38;;;;;;;7.90;4.18;;;19.40;97.70;;;;;;4126108;28;20034;-65
2021/09/06 10:12:39;;;;;;;6.75;4.47;;;19.40;97.60;;;;;;4126764;28;20096;-65
2021/09/06 10:15:01;;;;;;;10.52;4.18;;;19.40;97.60;;;;;;4125739;28;20817;-64
2021/09/06 10:17:05;;;;;;;6.43;4.15;;;19.30;97.60;;;;;;4141670;28;20053;-64
2021/09/06 10:19:08;;;;;;;13.13;4.15;;;19.50;97.60;;;;;;4126121;28;20030;-65
2021/09/06 10:21:19;;;;;;;15.20;4.03;;;19.60;97.50;;;;;;4127233;28;20034;-64
2021/09/06 10:23:21;;;;;;;7.70;4.10;;;19.70;97.20;;;;;;4126244;28;20503;-64
2021/09/06 10:25:29;;;;;;;11.07;4.07;;;19.80;97.20;;;;;;4127468;28;20038;-64
2021/09/06 10:27:35;;;;;;;9.38;4.28;;;20.00;97.30;;;;;;4125477;28;20038;-64
2021/09/06 10:29:36;;;;;;;7.75;4.30;;;20.00;97.10;;;;;;4127495;28;20075;-65